Terminal Aerodrome Forecast
Issued by NWS Mt. Holly, NJ

Home | Current Version | Previous Version | Text Only | Print | Product List | Glossary On
Versions: 1 2 3 4 5 6 7 8 9 10 11 12 13 14 15 16 17 18 19 20 21 22 23 24 25 26 27 28 29 30
000
FTUS41 KPHI 261400 AAA
TAFRDG
TAF AMD
KRDG 261422Z 2614/2712 07010G18KT 6SM -SN BKN015 OVC025
      TEMPO 2614/2616 3SM -SN OVC012
     FM261600 04012G20KT 2SM -SN OVC012
     FM262100 03012G20KT 1SM -SN OVC006
     FM270300 36013G22KT 2SM -SN BR OVC012=

USA.gov is the U.S. government's official web portal to all federal, state and local government web resources and services.